sensor_id;sensor_type;location;lat;lon;timestamp;P1;durP1;ratioP1;P2;durP2;ratioP2
22904;SDS011;11619;50.140;8.518;2023-03-20T00:01:52;8.30;;;7.50;;
22904;SDS011;11619;50.140;8.518;2023-03-20T00:04:18;8.18;;;7.30;;
22904;SDS011;11619;50.140;8.518;2023-03-20T00:06:45;7.32;;;6.57;;
22904;SDS011;11619;50.140;8.518;2023-03-20T00:09:11;7.05;;;6.35;;
22904;SDS011;11619;50.140;8.518;2023-03-20T00:11:40;6.53;;;5.40;;
22904;SDS011;11619;50.140;8.518;2023-03-20T00:14:13;5.78;;;5.22;;
22904;SDS011;11619;50.140;8.518;2023-03-20T00:16:42;6.57;;;5.85;;
22904;SDS011;11619;50.140;8.518;2023-03-20T00:19:16;6.35;;;5.43;;
22904;SDS011;11619;50.140;8.518;2023-03-20T00:21:52;8.43;;;7.63;;
22904;SDS011;11619;50.140;8.518;2023-03-20T00:24:19;8.25;;;7.43;;
22904;SDS011;11619;50.140;8.518;2023-03-20T00:26:46;8.27;;;7.47;;
22904;SDS011;11619;50.140;8.518;2023-03-20T00:29:26;9.60;;;7.15;;
22904;SDS011;11619;50.140;8.518;2023-03-20T00:31:57;7.57;;;6.88;;
22904;SDS011;11619;50.140;8.518;2023-03-20T00:34:25;8.98;;;6.90;;
22904;SDS011;11619;50.140;8.518;2023-03-20T00:36:54;7.78;;;6.97;;
22904;SDS011;11619;50.140;8.518;2023-03-20T00:39:21;7.20;;;6.47;;
22904;SDS011;11619;50.140;8.518;2023-03-20T00:41:49;8.75;;;6.97;;
22904;SDS011;11619;50.140;8.518;2023-03-20T00:44:24;9.50;;;7.50;;
22904;SDS011;11619;50.140;8.518;2023-03-20T00:46:54;8.57;;;7.78;;
22904;SDS011;11619;50.140;8.518;2023-03-20T00:49:26;8.75;;;7.47;;
22904;SDS011;11619;50.140;8.518;2023-03-20T00:51:57;7.78;;;7.07;;
22904;SDS011;11619;50.140;8.518;2023-03-20T00:54:24;8.10;;;7.30;;
22904;SDS011;11619;50.140;8.518;2023-03-20T00:56:53;8.32;;;7.35;;
22904;SDS011;11619;50.140;8.518;2023-03-20T00:59:22;10.23;;;7.95;;
22904;SDS011;11619;50.140;8.518;2023-03-20T01:01:51;7.85;;;7.05;;
22904;SDS011;11619;50.140;8.518;2023-03-20T01:04:18;9.80;;;7.18;;
22904;SDS011;11619;50.140;8.518;2023-03-20T01:06:46;8.57;;;7.78;;
22904;SDS011;11619;50.140;8.518;2023-03-20T01:09:12;8.15;;;7.38;;
22904;SDS011;11619;50.140;8.518;2023-03-20T01:11:39;8.95;;;7.90;;
22904;SDS011;11619;50.140;8.518;2023-03-20T01:14:09;8.60;;;7.65;;
22904;SDS011;11619;50.140;8.518;2023-03-20T01:16:38;9.13;;;7.93;;
22904;SDS011;11619;50.140;8.518;2023-03-20T01:19:05;8.35;;;7.43;;
22904;SDS011;11619;50.140;8.518;2023-03-20T01:21:31;8.30;;;7.50;;
22904;SDS011;11619;50.140;8.518;2023-03-20T01:23:57;8.63;;;7.68;;
22904;SDS011;11619;50.140;8.518;2023-03-20T01:26:34;8.02;;;7.22;;
22904;SDS011;11619;50.140;8.518;2023-03-20T01:29:02;8.57;;;7.68;;
22904;SDS011;11619;50.140;8.518;2023-03-20T01:31:29;8.43;;;7.63;;
22904;SDS011;11619;50.140;8.518;2023-03-20T01:33:56;9.02;;;7.70;;
22904;SDS011;11619;50.140;8.518;2023-03-20T01:36:22;8.95;;;8.15;;
22904;SDS011;11619;50.140;8.518;2023-03-20T01:38:50;8.32;;;7.53;;
22904;SDS011;11619;50.140;8.518;2023-03-20T01:41:20;8.77;;;7.88;;
22904;SDS011;11619;50.140;8.518;2023-03-20T01:43:48;9.40;;;8.40;;
22904;SDS011;11619;50.140;8.518;2023-03-20T01:46:19;9.07;;;8.18;;
22904;SDS011;11619;50.140;8.518;2023-03-20T01:48:55;9.30;;;8.40;;
22904;SDS011;11619;50.140;8.518;2023-03-20T01:54:01;8.57;;;7.70;;
22904;SDS011;11619;50.140;8.518;2023-03-20T01:56:33;8.63;;;7.72;;
22904;SDS011;11619;50.140;8.518;2023-03-20T01:59:05;11.30;;;9.23;;
22904;SDS011;11619;50.140;8.518;2023-03-20T02:01:38;8.88;;;8.00;;
22904;SDS011;11619;50.140;8.518;2023-03-20T02:04:05;10.05;;;9.05;;
22904;SDS011;11619;50.140;8.518;2023-03-20T02:06:34;13.98;;;12.48;;
22904;SDS011;11619;50.140;8.518;2023-03-20T02:09:01;20.67;;;15.88;;
22904;SDS011;11619;50.140;8.518;2023-03-20T02:11:28;20.60;;;15.85;;
22904;SDS011;11619;50.140;8.518;2023-03-20T02:13:55;17.98;;;15.18;;
22904;SDS011;11619;50.140;8.518;2023-03-20T02:16:23;20.10;;;15.00;;
22904;SDS011;11619;50.140;8.518;2023-03-20T02:18:51;18.38;;;14.60;;
22904;SDS011;11619;50.140;8.518;2023-03-20T02:21:45;15.98;;;13.18;;
22904;SDS011;11619;50.140;8.518;2023-03-20T02:27:23;18.42;;;14.27;;
22904;SDS011;11619;50.140;8.518;2023-03-20T02:30:02;20.25;;;16.60;;
22904;SDS011;11619;50.140;8.518;2023-03-20T02:36:02;23.25;;;17.55;;
22904;SDS011;11619;50.140;8.518;2023-03-20T02:44:00;16.17;;;14.00;;
22904;SDS011;11619;50.140;8.518;2023-03-20T02:52:39;12.02;;;9.45;;
22904;SDS011;11619;50.140;8.518;2023-03-20T02:55:16;12.00;;;10.60;;
22904;SDS011;11619;50.140;8.518;2023-03-20T02:57:48;11.32;;;10.32;;
22904;SDS011;11619;50.140;8.518;2023-03-20T03:03:10;11.52;;;9.60;;
22904;SDS011;11619;50.140;8.518;2023-03-20T03:05:42;11.27;;;10.18;;
22904;SDS011;11619;50.140;8.518;2023-03-20T03:08:12;11.40;;;10.35;;
22904;SDS011;11619;50.140;8.518;2023-03-20T03:10:40;10.77;;;9.77;;
22904;SDS011;11619;50.140;8.518;2023-03-20T03:13:12;11.23;;;10.05;;
22904;SDS011;11619;50.140;8.518;2023-03-20T03:15:41;11.93;;;10.52;;
22904;SDS011;11619;50.140;8.518;2023-03-20T03:18:12;10.75;;;9.65;;
22904;SDS011;11619;50.140;8.518;2023-03-20T03:20:41;10.15;;;9.15;;
22904;SDS011;11619;50.140;8.518;2023-03-20T03:23:09;11.50;;;10.20;;
22904;SDS011;11619;50.140;8.518;2023-03-20T03:25:43;10.55;;;9.55;;
22904;SDS011;11619;50.140;8.518;2023-03-20T03:30:49;10.20;;;9.25;;
22904;SDS011;11619;50.140;8.518;2023-03-20T03:33:27;9.70;;;8.77;;
22904;SDS011;11619;50.140;8.518;2023-03-20T03:36:05;10.55;;;9.50;;
22904;SDS011;11619;50.140;8.518;2023-03-20T03:38:57;13.55;;;10.05;;
22904;SDS011;11619;50.140;8.518;2023-03-20T03:44:27;11.27;;;10.15;;
22904;SDS011;11619;50.140;8.518;2023-03-20T03:47:04;11.63;;;10.43;;
22904;SDS011;11619;50.140;8.518;2023-03-20T03:49:36;11.68;;;10.48;;
22904;SDS011;11619;50.140;8.518;2023-03-20T03:52:07;10.82;;;9.82;;
22904;SDS011;11619;50.140;8.518;2023-03-20T03:54:47;12.25;;;11.05;;
22904;SDS011;11619;50.140;8.518;2023-03-20T03:57:17;12.30;;;10.88;;
22904;SDS011;11619;50.140;8.518;2023-03-20T03:59:48;12.27;;;11.10;;
22904;SDS011;11619;50.140;8.518;2023-03-20T04:02:16;12.98;;;11.10;;
22904;SDS011;11619;50.140;8.518;2023-03-20T04:04:45;12.70;;;11.38;;
22904;SDS011;11619;50.140;8.518;2023-03-20T04:07:14;11.75;;;10.15;;
22904;SDS011;11619;50.140;8.518;2023-03-20T04:09:40;11.40;;;10.20;;
22904;SDS011;11619;50.140;8.518;2023-03-20T04:12:17;13.00;;;10.77;;
22904;SDS011;11619;50.140;8.518;2023-03-20T04:15:00;13.70;;;11.10;;
22904;SDS011;11619;50.140;8.518;2023-03-20T04:17:28;15.55;;;12.60;;
22904;SDS011;11619;50.140;8.518;2023-03-20T04:19:55;25.20;;;16.15;;
22904;SDS011;11619;50.140;8.518;2023-03-20T04:22:22;22.13;;;17.15;;
22904;SDS011;11619;50.140;8.518;2023-03-20T04:24:49;23.83;;;17.20;;
22904;SDS011;11619;50.140;8.518;2023-03-20T04:27:16;23.85;;;17.55;;
22904;SDS011;11619;50.140;8.518;2023-03-20T04:29:42;30.63;;;21.23;;
22904;SDS011;11619;50.140;8.518;2023-03-20T04:32:09;40.72;;;25.42;;
22904;SDS011;11619;50.140;8.518;2023-03-20T04:34:35;39.55;;;28.30;;
22904;SDS011;11619;50.140;8.518;2023-03-20T04:37:02;42.53;;;27.27;;
22904;SDS011;11619;50.140;8.518;2023-03-20T04:39:30;41.30;;;27.40;;
22904;SDS011;11619;50.140;8.518;2023-03-20T04:41:56;39.08;;;25.02;;
22904;SDS011;11619;50.140;8.518;2023-03-20T04:44:23;36.80;;;25.67;;
22904;SDS011;11619;50.140;8.518;2023-03-20T04:46:49;36.25;;;25.02;;
22904;SDS011;11619;50.140;8.518;2023-03-20T04:49:15;37.25;;;26.23;;
22904;SDS011;11619;50.140;8.518;2023-03-20T04:51:42;37.35;;;25.02;;
22904;SDS011;11619;50.140;8.518;2023-03-20T04:54:08;35.83;;;25.48;;
22904;SDS011;11619;50.140;8.518;2023-03-20T04:56:35;38.95;;;25.38;;
22904;SDS011;11619;50.140;8.518;2023-03-20T04:59:01;42.92;;;26.85;;
22904;SDS011;11619;50.140;8.518;2023-03-20T05:01:27;39.25;;;25.45;;
22904;SDS011;11619;50.140;8.518;2023-03-20T05:03:54;36.20;;;24.85;;
22904;SDS011;11619;50.140;8.518;2023-03-20T05:06:26;37.58;;;25.52;;
22904;SDS011;11619;50.140;8.518;2023-03-20T05:08:53;38.90;;;25.75;;
22904;SDS011;11619;50.140;8.518;2023-03-20T05:11:19;36.03;;;23.98;;
22904;SDS011;11619;50.140;8.518;2023-03-20T05:13:46;36.75;;;24.80;;
22904;SDS011;11619;50.140;8.518;2023-03-20T05:16:12;39.05;;;25.83;;
22904;SDS011;11619;50.140;8.518;2023-03-20T05:18:38;38.33;;;25.55;;
22904;SDS011;11619;50.140;8.518;2023-03-20T05:21:05;41.70;;;27.77;;
22904;SDS011;11619;50.140;8.518;2023-03-20T05:23:32;38.78;;;27.13;;
22904;SDS011;11619;50.140;8.518;2023-03-20T05:25:59;40.17;;;25.90;;
22904;SDS011;11619;50.140;8.518;2023-03-20T05:28:26;42.53;;;27.20;;
22904;SDS011;11619;50.140;8.518;2023-03-20T05:30:52;38.30;;;25.77;;
22904;SDS011;11619;50.140;8.518;2023-03-20T05:33:19;38.78;;;25.85;;
22904;SDS011;11619;50.140;8.518;2023-03-20T05:35:46;39.58;;;27.15;;
22904;SDS011;11619;50.140;8.518;2023-03-20T05:38:12;38.85;;;26.30;;
22904;SDS011;11619;50.140;8.518;2023-03-20T05:40:39;36.83;;;25.77;;
22904;SDS011;11619;50.140;8.518;2023-03-20T05:43:07;35.78;;;24.25;;
22904;SDS011;11619;50.140;8.518;2023-03-20T05:45:33;39.72;;;26.73;;
22904;SDS011;11619;50.140;8.518;2023-03-20T05:48:00;37.80;;;26.13;;
22904;SDS011;11619;50.140;8.518;2023-03-20T05:50:26;38.95;;;26.63;;
22904;SDS011;11619;50.140;8.518;2023-03-20T05:52:52;34.72;;;25.60;;
22904;SDS011;11619;50.140;8.518;2023-03-20T05:55:19;38.80;;;27.42;;
22904;SDS011;11619;50.140;8.518;2023-03-20T05:57:45;38.92;;;27.52;;
22904;SDS011;11619;50.140;8.518;2023-03-20T06:00:12;37.72;;;27.67;;
22904;SDS011;11619;50.140;8.518;2023-03-20T06:02:39;35.95;;;27.13;;
22904;SDS011;11619;50.140;8.518;2023-03-20T06:05:05;37.50;;;26.85;;
22904;SDS011;11619;50.140;8.518;2023-03-20T06:07:32;34.00;;;26.13;;
22904;SDS011;11619;50.140;8.518;2023-03-20T06:09:58;37.63;;;27.70;;
22904;SDS011;11619;50.140;8.518;2023-03-20T06:12:25;39.80;;;28.23;;
22904;SDS011;11619;50.140;8.518;2023-03-20T06:14:51;35.33;;;26.20;;
22904;SDS011;11619;50.140;8.518;2023-03-20T06:17:18;39.72;;;27.55;;
22904;SDS011;11619;50.140;8.518;2023-03-20T06:19:44;37.63;;;27.30;;
22904;SDS011;11619;50.140;8.518;2023-03-20T06:22:10;39.70;;;29.20;;
22904;SDS011;11619;50.140;8.518;2023-03-20T06:24:37;37.58;;;27.17;;
22904;SDS011;11619;50.140;8.518;2023-03-20T06:27:03;36.63;;;27.45;;
22904;SDS011;11619;50.140;8.518;2023-03-20T06:29:29;38.80;;;28.25;;
22904;SDS011;11619;50.140;8.518;2023-03-20T06:31:56;39.35;;;27.92;;
22904;SDS011;11619;50.140;8.518;2023-03-20T06:34:22;37.72;;;27.48;;
22904;SDS011;11619;50.140;8.518;2023-03-20T06:36:49;36.15;;;26.45;;
22904;SDS011;11619;50.140;8.518;2023-03-20T06:39:15;35.78;;;26.17;;
22904;SDS011;11619;50.140;8.518;2023-03-20T06:41:42;34.72;;;24.00;;
22904;SDS011;11619;50.140;8.518;2023-03-20T06:44:08;34.75;;;25.35;;
22904;SDS011;11619;50.140;8.518;2023-03-20T06:46:35;33.88;;;25.23;;
22904;SDS011;11619;50.140;8.518;2023-03-20T06:49:01;33.35;;;23.73;;
22904;SDS011;11619;50.140;8.518;2023-03-20T06:51:28;32.85;;;24.58;;
22904;SDS011;11619;50.140;8.518;2023-03-20T06:53:55;34.53;;;23.75;;
22904;SDS011;11619;50.140;8.518;2023-03-20T06:56:22;33.88;;;25.35;;
22904;SDS011;11619;50.140;8.518;2023-03-20T06:58:48;35.35;;;26.13;;
22904;SDS011;11619;50.140;8.518;2023-03-20T07:01:15;34.35;;;24.70;;
22904;SDS011;11619;50.140;8.518;2023-03-20T07:03:42;37.33;;;26.48;;
22904;SDS011;11619;50.140;8.518;2023-03-20T07:06:09;35.55;;;24.42;;
22904;SDS011;11619;50.140;8.518;2023-03-20T07:08:37;31.33;;;23.17;;
22904;SDS011;11619;50.140;8.518;2023-03-20T07:11:03;32.85;;;24.40;;
22904;SDS011;11619;50.140;8.518;2023-03-20T07:13:30;37.53;;;25.45;;
22904;SDS011;11619;50.140;8.518;2023-03-20T07:15:59;35.50;;;24.85;;
22904;SDS011;11619;50.140;8.518;2023-03-20T07:18:30;37.47;;;25.48;;
22904;SDS011;11619;50.140;8.518;2023-03-20T07:20:57;33.22;;;24.70;;
22904;SDS011;11619;50.140;8.518;2023-03-20T07:23:27;34.75;;;26.67;;
22904;SDS011;11619;50.140;8.518;2023-03-20T07:25:54;36.33;;;27.77;;
22904;SDS011;11619;50.140;8.518;2023-03-20T07:28:20;35.78;;;26.27;;
22904;SDS011;11619;50.140;8.518;2023-03-20T07:30:47;37.25;;;26.90;;
22904;SDS011;11619;50.140;8.518;2023-03-20T07:33:13;30.00;;;24.38;;
22904;SDS011;11619;50.140;8.518;2023-03-20T07:35:40;38.70;;;25.40;;
22904;SDS011;11619;50.140;8.518;2023-03-20T07:38:06;33.15;;;24.98;;
22904;SDS011;11619;50.140;8.518;2023-03-20T07:40:33;32.03;;;23.10;;
22904;SDS011;11619;50.140;8.518;2023-03-20T07:42:59;28.50;;;22.65;;
22904;SDS011;11619;50.140;8.518;2023-03-20T07:45:26;36.53;;;23.30;;
22904;SDS011;11619;50.140;8.518;2023-03-20T07:47:52;30.65;;;24.17;;
22904;SDS011;11619;50.140;8.518;2023-03-20T07:50:19;27.50;;;22.92;;
22904;SDS011;11619;50.140;8.518;2023-03-20T07:52:46;30.00;;;23.50;;
22904;SDS011;11619;50.140;8.518;2023-03-20T07:55:13;32.08;;;23.60;;
22904;SDS011;11619;50.140;8.518;2023-03-20T07:57:43;30.08;;;23.48;;
22904;SDS011;11619;50.140;8.518;2023-03-20T08:00:10;30.63;;;23.13;;
22904;SDS011;11619;50.140;8.518;2023-03-20T08:02:37;30.60;;;22.77;;
22904;SDS011;11619;50.140;8.518;2023-03-20T08:05:03;31.85;;;24.63;;
22904;SDS011;11619;50.140;8.518;2023-03-20T08:07:31;28.23;;;22.25;;
22904;SDS011;11619;50.140;8.518;2023-03-20T08:09:57;26.85;;;21.27;;
22904;SDS011;11619;50.140;8.518;2023-03-20T08:12:23;28.50;;;22.05;;
22904;SDS011;11619;50.140;8.518;2023-03-20T08:14:50;27.23;;;20.38;;
22904;SDS011;11619;50.140;8.518;2023-03-20T08:17:17;30.73;;;23.17;;
22904;SDS011;11619;50.140;8.518;2023-03-20T08:19:46;29.88;;;22.65;;
22904;SDS011;11619;50.140;8.518;2023-03-20T08:22:13;27.05;;;21.70;;
22904;SDS011;11619;50.140;8.518;2023-03-20T08:24:39;30.58;;;23.42;;
22904;SDS011;11619;50.140;8.518;2023-03-20T08:27:06;29.45;;;23.02;;
22904;SDS011;11619;50.140;8.518;2023-03-20T08:29:32;32.53;;;23.90;;
22904;SDS011;11619;50.140;8.518;2023-03-20T08:31:59;31.48;;;24.77;;
22904;SDS011;11619;50.140;8.518;2023-03-20T08:34:25;34.10;;;24.67;;
22904;SDS011;11619;50.140;8.518;2023-03-20T08:36:52;32.92;;;23.38;;
22904;SDS011;11619;50.140;8.518;2023-03-20T08:39:18;32.08;;;23.75;;
22904;SDS011;11619;50.140;8.518;2023-03-20T08:41:45;29.65;;;21.38;;
22904;SDS011;11619;50.140;8.518;2023-03-20T08:44:11;29.02;;;23.50;;
22904;SDS011;11619;50.140;8.518;2023-03-20T08:46:38;30.92;;;22.17;;
22904;SDS011;11619;50.140;8.518;2023-03-20T08:49:05;29.48;;;23.13;;
22904;SDS011;11619;50.140;8.518;2023-03-20T08:51:32;32.92;;;23.80;;
22904;SDS011;11619;50.140;8.518;2023-03-20T08:53:58;32.53;;;23.92;;
22904;SDS011;11619;50.140;8.518;2023-03-20T08:56:25;33.05;;;24.45;;
22904;SDS011;11619;50.140;8.518;2023-03-20T08:58:51;34.67;;;24.23;;
22904;SDS011;11619;50.140;8.518;2023-03-20T09:01:21;31.50;;;23.10;;
22904;SDS011;11619;50.140;8.518;2023-03-20T09:03:47;33.33;;;24.13;;
22904;SDS011;11619;50.140;8.518;2023-03-20T09:06:14;33.78;;;26.45;;
22904;SDS011;11619;50.140;8.518;2023-03-20T09:08:40;38.42;;;28.15;;
22904;SDS011;11619;50.140;8.518;2023-03-20T09:11:07;39.83;;;27.60;;
22904;SDS011;11619;50.140;8.518;2023-03-20T09:13:33;38.65;;;27.73;;
22904;SDS011;11619;50.140;8.518;2023-03-20T09:16:00;32.58;;;24.90;;
22904;SDS011;11619;50.140;8.518;2023-03-20T09:18:27;36.97;;;25.85;;
22904;SDS011;11619;50.140;8.518;2023-03-20T09:20:53;34.03;;;26.80;;
22904;SDS011;11619;50.140;8.518;2023-03-20T09:23:21;38.55;;;27.77;;
22904;SDS011;11619;50.140;8.518;2023-03-20T09:25:48;37.08;;;25.75;;
22904;SDS011;11619;50.140;8.518;2023-03-20T09:28:14;33.45;;;24.17;;
22904;SDS011;11619;50.140;8.518;2023-03-20T09:30:40;27.13;;;22.10;;
22904;SDS011;11619;50.140;8.518;2023-03-20T09:33:08;28.73;;;22.95;;
22904;SDS011;11619;50.140;8.518;2023-03-20T09:35:35;30.30;;;23.55;;
22904;SDS011;11619;50.140;8.518;2023-03-20T09:38:01;29.63;;;23.30;;
22904;SDS011;11619;50.140;8.518;2023-03-20T09:40:29;29.15;;;22.98;;
22904;SDS011;11619;50.140;8.518;2023-03-20T09:43:08;27.73;;;20.17;;
22904;SDS011;11619;50.140;8.518;2023-03-20T09:45:55;30.83;;;23.20;;
22904;SDS011;11619;50.140;8.518;2023-03-20T09:48:52;26.67;;;20.20;;
22904;SDS011;11619;50.140;8.518;2023-03-20T09:54:13;27.90;;;17.83;;
22904;SDS011;11619;50.140;8.518;2023-03-20T09:56:49;24.63;;;18.55;;
22904;SDS011;11619;50.140;8.518;2023-03-20T09:59:16;23.42;;;18.55;;
22904;SDS011;11619;50.140;8.518;2023-03-20T10:01:53;23.95;;;18.02;;
22904;SDS011;11619;50.140;8.518;2023-03-20T10:04:22;23.95;;;18.23;;
22904;SDS011;11619;50.140;8.518;2023-03-20T10:06:51;22.83;;;16.63;;
22904;SDS011;11619;50.140;8.518;2023-03-20T10:14:37;20.70;;;15.40;;
22904;SDS011;11619;50.140;8.518;2023-03-20T10:19:57;19.15;;;14.85;;
22904;SDS011;11619;50.140;8.518;2023-03-20T10:22:33;22.58;;;16.77;;
22904;SDS011;11619;50.140;8.518;2023-03-20T10:25:05;20.70;;;16.70;;
22904;SDS011;11619;50.140;8.518;2023-03-20T10:38:41;16.52;;;13.48;;
22904;SDS011;11619;50.140;8.518;2023-03-20T10:41:12;19.27;;;15.50;;
22904;SDS011;11619;50.140;8.518;2023-03-20T10:43:44;20.08;;;15.48;;
22904;SDS011;11619;50.140;8.518;2023-03-20T10:46:26;19.48;;;14.68;;
22904;SDS011;11619;50.140;8.518;2023-03-20T10:48:59;19.02;;;15.27;;
22904;SDS011;11619;50.140;8.518;2023-03-20T10:51:34;18.50;;;14.57;;
22904;SDS011;11619;50.140;8.518;2023-03-20T10:54:21;18.35;;;14.38;;
22904;SDS011;11619;50.140;8.518;2023-03-20T10:56:49;15.77;;;13.77;;
22904;SDS011;11619;50.140;8.518;2023-03-20T10:59:25;16.92;;;13.13;;
22904;SDS011;11619;50.140;8.518;2023-03-20T11:01:53;17.10;;;11.85;;
22904;SDS011;11619;50.140;8.518;2023-03-20T11:04:20;15.30;;;12.10;;
22904;SDS011;11619;50.140;8.518;2023-03-20T11:06:48;16.88;;;12.73;;
22904;SDS011;11619;50.140;8.518;2023-03-20T11:09:24;14.93;;;12.93;;
22904;SDS011;11619;50.140;8.518;2023-03-20T11:11:56;17.80;;;12.38;;
22904;SDS011;11619;50.140;8.518;2023-03-20T11:14:24;11.48;;;9.68;;
22904;SDS011;11619;50.140;8.518;2023-03-20T11:16:53;11.80;;;10.00;;
22904;SDS011;11619;50.140;8.518;2023-03-20T11:19:22;10.73;;;9.60;;
22904;SDS011;11619;50.140;8.518;2023-03-20T11:24:19;12.43;;;8.55;;
22904;SDS011;11619;50.140;8.518;2023-03-20T11:26:49;13.40;;;9.40;;
22904;SDS011;11619;50.140;8.518;2023-03-20T11:29:20;13.88;;;11.27;;
22904;SDS011;11619;50.140;8.518;2023-03-20T11:31:50;14.35;;;10.77;;
22904;SDS011;11619;50.140;8.518;2023-03-20T11:34:21;10.70;;;8.60;;
22904;SDS011;11619;50.140;8.518;2023-03-20T11:36:55;12.75;;;9.75;;
22904;SDS011;11619;50.140;8.518;2023-03-20T11:39:38;11.98;;;9.43;;
22904;SDS011;11619;50.140;8.518;2023-03-20T11:42:22;15.85;;;10.18;;
22904;SDS011;11619;50.140;8.518;2023-03-20T11:45:01;11.52;;;8.63;;
22904;SDS011;11619;50.140;8.518;2023-03-20T11:47:33;12.13;;;7.57;;
22904;SDS011;11619;50.140;8.518;2023-03-20T11:50:02;10.05;;;7.20;;
22904;SDS011;11619;50.140;8.518;2023-03-20T11:52:31;8.27;;;6.75;;
22904;SDS011;11619;50.140;8.518;2023-03-20T11:55:01;7.38;;;6.60;;
22904;SDS011;11619;50.140;8.518;2023-03-20T11:57:30;7.82;;;6.63;;
22904;SDS011;11619;50.140;8.518;2023-03-20T12:00:05;9.90;;;6.70;;
22904;SDS011;11619;50.140;8.518;2023-03-20T12:02:48;7.78;;;6.88;;
22904;SDS011;11619;50.140;8.518;2023-03-20T12:05:34;8.88;;;6.50;;
22904;SDS011;11619;50.140;8.518;2023-03-20T12:08:07;10.55;;;6.20;;
22904;SDS011;11619;50.140;8.518;2023-03-20T12:10:38;9.00;;;6.63;;
22904;SDS011;11619;50.140;8.518;2023-03-20T12:13:12;9.18;;;6.70;;
22904;SDS011;11619;50.140;8.518;2023-03-20T12:15:49;8.48;;;7.20;;
22904;SDS011;11619;50.140;8.518;2023-03-20T12:18:29;7.70;;;6.38;;
22904;SDS011;11619;50.140;8.518;2023-03-20T12:23:39;7.72;;;6.90;;
22904;SDS011;11619;50.140;8.518;2023-03-20T12:26:17;7.78;;;6.40;;
22904;SDS011;11619;50.140;8.518;2023-03-20T12:34:20;7.28;;;5.40;;
22904;SDS011;11619;50.140;8.518;2023-03-20T12:36:49;5.35;;;4.55;;
22904;SDS011;11619;50.140;8.518;2023-03-20T12:39:22;4.20;;;3.80;;
22904;SDS011;11619;50.140;8.518;2023-03-20T12:44:54;5.70;;;2.85;;
22904;SDS011;11619;50.140;8.518;2023-03-20T12:52:50;2.75;;;2.30;;
22904;SDS011;11619;50.140;8.518;2023-03-20T12:55:28;2.75;;;2.38;;
22904;SDS011;11619;50.140;8.518;2023-03-20T13:00:51;4.57;;;2.13;;
22904;SDS011;11619;50.140;8.518;2023-03-20T13:03:26;3.33;;;2.67;;
22904;SDS011;11619;50.140;8.518;2023-03-20T13:06:13;4.35;;;2.40;;
22904;SDS011;11619;50.140;8.518;2023-03-20T13:08:51;3.05;;;2.35;;
22904;SDS011;11619;50.140;8.518;2023-03-20T13:11:27;2.78;;;2.33;;
22904;SDS011;11619;50.140;8.518;2023-03-20T13:14:13;2.97;;;2.28;;
22904;SDS011;11619;50.140;8.518;2023-03-20T13:22:31;4.75;;;2.13;;
22904;SDS011;11619;50.140;8.518;2023-03-20T13:25:09;3.08;;;2.03;;
22904;SDS011;11619;50.140;8.518;2023-03-20T13:28:06;2.67;;;1.90;;
22904;SDS011;11619;50.140;8.518;2023-03-20T13:30:58;1.95;;;1.67;;
22904;SDS011;11619;50.140;8.518;2023-03-20T13:33:37;2.63;;;1.92;;
22904;SDS011;11619;50.140;8.518;2023-03-20T13:36:20;2.80;;;1.77;;
22904;SDS011;11619;50.140;8.518;2023-03-20T13:38:51;2.80;;;1.67;;
22904;SDS011;11619;50.140;8.518;2023-03-20T13:41:22;3.53;;;2.15;;
22904;SDS011;11619;50.140;8.518;2023-03-20T13:43:50;8.00;;;2.20;;
22904;SDS011;11619;50.140;8.518;2023-03-20T13:46:23;4.70;;;2.45;;
22904;SDS011;11619;50.140;8.518;2023-03-20T13:48:53;3.15;;;2.20;;
22904;SDS011;11619;50.140;8.518;2023-03-20T13:51:26;2.30;;;2.10;;
22904;SDS011;11619;50.140;8.518;2023-03-20T14:05:09;2.30;;;2.10;;
22904;SDS011;11619;50.140;8.518;2023-03-20T14:07:38;3.17;;;2.58;;
22904;SDS011;11619;50.140;8.518;2023-03-20T14:12:47;3.35;;;2.47;;
22904;SDS011;11619;50.140;8.518;2023-03-20T14:15:22;4.40;;;2.88;;
22904;SDS011;11619;50.140;8.518;2023-03-20T14:17:51;3.53;;;2.47;;
22904;SDS011;11619;50.140;8.518;2023-03-20T14:20:28;5.13;;;2.72;;
22904;SDS011;11619;50.140;8.518;2023-03-20T14:22:56;4.25;;;3.17;;
22904;SDS011;11619;50.140;8.518;2023-03-20T14:25:23;3.28;;;2.70;;
22904;SDS011;11619;50.140;8.518;2023-03-20T14:27:59;4.45;;;2.92;;
22904;SDS011;11619;50.140;8.518;2023-03-20T14:32:58;3.83;;;3.35;;
22904;SDS011;11619;50.140;8.518;2023-03-20T14:35:26;5.50;;;2.90;;
22904;SDS011;11619;50.140;8.518;2023-03-20T14:38:07;7.45;;;3.50;;
22904;SDS011;11619;50.140;8.518;2023-03-20T14:40:38;6.57;;;3.55;;
22904;SDS011;11619;50.140;8.518;2023-03-20T14:46:17;3.85;;;3.40;;
22904;SDS011;11619;50.140;8.518;2023-03-20T14:48:49;5.00;;;3.30;;
22904;SDS011;11619;50.140;8.518;2023-03-20T14:53:54;4.07;;;3.35;;
22904;SDS011;11619;50.140;8.518;2023-03-20T14:56:28;5.15;;;4.18;;
22904;SDS011;11619;50.140;8.518;2023-03-20T14:58:59;4.65;;;3.53;;
22904;SDS011;11619;50.140;8.518;2023-03-20T15:01:33;4.40;;;3.38;;
22904;SDS011;11619;50.140;8.518;2023-03-20T15:04:18;7.30;;;3.42;;
22904;SDS011;11619;50.140;8.518;2023-03-20T15:06:59;5.60;;;3.60;;
22904;SDS011;11619;50.140;8.518;2023-03-20T15:09:29;5.05;;;3.53;;
22904;SDS011;11619;50.140;8.518;2023-03-20T15:11:57;3.83;;;3.13;;
22904;SDS011;11619;50.140;8.518;2023-03-20T15:14:31;4.68;;;3.63;;
22904;SDS011;11619;50.140;8.518;2023-03-20T15:17:00;6.40;;;3.10;;
22904;SDS011;11619;50.140;8.518;2023-03-20T15:19:27;4.25;;;3.25;;
22904;SDS011;11619;50.140;8.518;2023-03-20T15:21:54;3.22;;;2.78;;
22904;SDS011;11619;50.140;8.518;2023-03-20T15:27:08;5.18;;;2.90;;
22904;SDS011;11619;50.140;8.518;2023-03-20T15:29:36;4.10;;;2.60;;
22904;SDS011;11619;50.140;8.518;2023-03-20T15:32:02;3.20;;;2.17;;
22904;SDS011;11619;50.140;8.518;2023-03-20T15:34:40;4.15;;;2.40;;
22904;SDS011;11619;50.140;8.518;2023-03-20T15:37:08;4.32;;;2.35;;
22904;SDS011;11619;50.140;8.518;2023-03-20T15:39:42;3.50;;;1.83;;
22904;SDS011;11619;50.140;8.518;2023-03-20T15:42:14;2.47;;;2.05;;
22904;SDS011;11619;50.140;8.518;2023-03-20T15:44:43;3.08;;;1.88;;
22904;SDS011;11619;50.140;8.518;2023-03-20T15:47:14;3.30;;;1.58;;
22904;SDS011;11619;50.140;8.518;2023-03-20T15:50:03;2.08;;;1.60;;
22904;SDS011;11619;50.140;8.518;2023-03-20T15:52:31;3.03;;;1.90;;
22904;SDS011;11619;50.140;8.518;2023-03-20T15:55:03;2.50;;;2.13;;
22904;SDS011;11619;50.140;8.518;2023-03-20T15:57:33;2.95;;;2.15;;
22904;SDS011;11619;50.140;8.518;2023-03-20T16:00:05;2.45;;;1.75;;
22904;SDS011;11619;50.140;8.518;2023-03-20T16:02:35;1.85;;;1.65;;
22904;SDS011;11619;50.140;8.518;2023-03-20T16:05:02;2.20;;;1.80;;
22904;SDS011;11619;50.140;8.518;2023-03-20T16:07:29;1.27;;;1.13;;
22904;SDS011;11619;50.140;8.518;2023-03-20T16:09:58;1.80;;;1.58;;
22904;SDS011;11619;50.140;8.518;2023-03-20T16:12:24;2.53;;;2.00;;
22904;SDS011;11619;50.140;8.518;2023-03-20T16:14:52;2.00;;;1.75;;
22904;SDS011;11619;50.140;8.518;2023-03-20T16:17:20;1.85;;;1.70;;
22904;SDS011;11619;50.140;8.518;2023-03-20T16:19:47;2.90;;;1.90;;
22904;SDS011;11619;50.140;8.518;2023-03-20T16:22:24;2.13;;;1.83;;
22904;SDS011;11619;50.140;8.518;2023-03-20T16:24:53;3.33;;;2.35;;
22904;SDS011;11619;50.140;8.518;2023-03-20T16:27:27;2.67;;;2.00;;
22904;SDS011;11619;50.140;8.518;2023-03-20T16:29:54;3.00;;;2.10;;
22904;SDS011;11619;50.140;8.518;2023-03-20T16:32:23;2.75;;;1.83;;
22904;SDS011;11619;50.140;8.518;2023-03-20T16:34:54;5.80;;;2.10;;